sensor_id;sensor_type;location;lat;lon;timestamp;P1;durP1;ratioP1;P2;durP2;ratioP2
23410;SDS011;11878;51.774;7.220;2023-02-15T00:01:21;21.37;;;9.63;;
23410;SDS011;11878;51.774;7.220;2023-02-15T00:04:23;25.70;;;11.03;;
23410;SDS011;11878;51.774;7.220;2023-02-15T00:07:46;22.23;;;10.13;;
23410;SDS011;11878;51.774;7.220;2023-02-15T00:10:48;18.57;;;9.37;;
23410;SDS011;11878;51.774;7.220;2023-02-15T00:13:49;22.87;;;10.50;;
23410;SDS011;11878;51.774;7.220;2023-02-15T00:16:51;20.80;;;9.40;;
23410;SDS011;11878;51.774;7.220;2023-02-15T00:19:55;21.10;;;10.13;;
23410;SDS011;11878;51.774;7.220;2023-02-15T00:22:57;19.83;;;9.60;;
23410;SDS011;11878;51.774;7.220;2023-02-15T00:26:06;23.43;;;9.83;;
23410;SDS011;11878;51.774;7.220;2023-02-15T00:29:14;21.67;;;10.77;;
23410;SDS011;11878;51.774;7.220;2023-02-15T00:32:17;22.50;;;9.87;;
23410;SDS011;11878;51.774;7.220;2023-02-15T00:35:20;17.97;;;9.23;;
23410;SDS011;11878;51.774;7.220;2023-02-15T00:38:22;17.37;;;8.70;;
23410;SDS011;11878;51.774;7.220;2023-02-15T00:41:24;16.83;;;7.30;;
23410;SDS011;11878;51.774;7.220;2023-02-15T00:44:26;18.67;;;8.20;;
23410;SDS011;11878;51.774;7.220;2023-02-15T00:47:30;16.57;;;8.10;;
23410;SDS011;11878;51.774;7.220;2023-02-15T00:50:32;17.60;;;9.53;;
23410;SDS011;11878;51.774;7.220;2023-02-15T00:53:33;20.10;;;10.00;;
23410;SDS011;11878;51.774;7.220;2023-02-15T00:56:35;20.23;;;9.47;;
23410;SDS011;11878;51.774;7.220;2023-02-15T00:59:37;14.83;;;8.80;;
23410;SDS011;11878;51.774;7.220;2023-02-15T01:02:39;22.73;;;9.97;;
23410;SDS011;11878;51.774;7.220;2023-02-15T01:05:41;25.10;;;10.33;;
23410;SDS011;11878;51.774;7.220;2023-02-15T01:08:46;20.47;;;10.10;;
23410;SDS011;11878;51.774;7.220;2023-02-15T01:11:48;23.47;;;9.63;;
23410;SDS011;11878;51.774;7.220;2023-02-15T01:14:50;23.97;;;10.37;;
23410;SDS011;11878;51.774;7.220;2023-02-15T01:17:53;20.37;;;9.23;;
23410;SDS011;11878;51.774;7.220;2023-02-15T01:20:55;20.47;;;9.57;;
23410;SDS011;11878;51.774;7.220;2023-02-15T01:23:57;24.03;;;9.60;;
23410;SDS011;11878;51.774;7.220;2023-02-15T01:27:00;23.73;;;10.43;;
23410;SDS011;11878;51.774;7.220;2023-02-15T01:30:01;18.90;;;8.13;;
23410;SDS011;11878;51.774;7.220;2023-02-15T01:33:05;21.40;;;9.10;;
23410;SDS011;11878;51.774;7.220;2023-02-15T01:43:09;23.00;;;9.03;;
23410;SDS011;11878;51.774;7.220;2023-02-15T01:46:12;20.80;;;9.10;;
23410;SDS011;11878;51.774;7.220;2023-02-15T01:56:12;17.13;;;8.40;;
23410;SDS011;11878;51.774;7.220;2023-02-15T01:59:22;18.67;;;9.23;;
23410;SDS011;11878;51.774;7.220;2023-02-15T02:02:25;20.47;;;8.53;;
23410;SDS011;11878;51.774;7.220;2023-02-15T02:05:28;17.40;;;9.13;;
23410;SDS011;11878;51.774;7.220;2023-02-15T02:08:31;19.73;;;9.23;;
23410;SDS011;11878;51.774;7.220;2023-02-15T02:11:33;19.40;;;8.13;;
23410;SDS011;11878;51.774;7.220;2023-02-15T02:14:35;18.00;;;8.57;;
23410;SDS011;11878;51.774;7.220;2023-02-15T02:21:10;23.00;;;9.87;;
23410;SDS011;11878;51.774;7.220;2023-02-15T02:28:28;19.87;;;8.70;;
23410;SDS011;11878;51.774;7.220;2023-02-15T02:31:39;20.03;;;9.43;;
23410;SDS011;11878;51.774;7.220;2023-02-15T02:44:46;18.17;;;9.60;;
23410;SDS011;11878;51.774;7.220;2023-02-15T02:48:03;22.53;;;9.20;;
23410;SDS011;11878;51.774;7.220;2023-02-15T02:51:12;19.30;;;8.70;;
23410;SDS011;11878;51.774;7.220;2023-02-15T02:54:16;16.83;;;8.77;;
23410;SDS011;11878;51.774;7.220;2023-02-15T02:57:17;18.37;;;8.80;;
23410;SDS011;11878;51.774;7.220;2023-02-15T03:00:21;16.10;;;8.17;;
23410;SDS011;11878;51.774;7.220;2023-02-15T03:03:27;18.00;;;8.20;;
23410;SDS011;11878;51.774;7.220;2023-02-15T03:09:50;19.10;;;7.97;;
23410;SDS011;11878;51.774;7.220;2023-02-15T03:12:54;21.27;;;8.57;;
23410;SDS011;11878;51.774;7.220;2023-02-15T03:15:56;14.97;;;8.20;;
23410;SDS011;11878;51.774;7.220;2023-02-15T03:19:26;17.60;;;7.40;;
23410;SDS011;11878;51.774;7.220;2023-02-15T03:22:36;18.33;;;8.77;;
23410;SDS011;11878;51.774;7.220;2023-02-15T03:25:59;14.43;;;7.87;;
23410;SDS011;11878;51.774;7.220;2023-02-15T03:32:32;18.37;;;8.20;;
23410;SDS011;11878;51.774;7.220;2023-02-15T03:35:38;18.97;;;8.57;;
23410;SDS011;11878;51.774;7.220;2023-02-15T03:38:51;18.90;;;7.90;;
23410;SDS011;11878;51.774;7.220;2023-02-15T03:42:20;16.97;;;8.10;;
23410;SDS011;11878;51.774;7.220;2023-02-15T03:45:29;17.43;;;8.27;;
23410;SDS011;11878;51.774;7.220;2023-02-15T03:48:38;25.30;;;8.00;;
23410;SDS011;11878;51.774;7.220;2023-02-15T03:51:42;15.53;;;7.23;;
23410;SDS011;11878;51.774;7.220;2023-02-15T03:54:47;22.37;;;8.07;;
23410;SDS011;11878;51.774;7.220;2023-02-15T03:57:50;19.87;;;8.63;;
23410;SDS011;11878;51.774;7.220;2023-02-15T04:01:45;29.90;;;7.43;;
23410;SDS011;11878;51.774;7.220;2023-02-15T04:04:59;17.30;;;8.13;;
23410;SDS011;11878;51.774;7.220;2023-02-15T04:08:01;18.10;;;7.77;;
23410;SDS011;11878;51.774;7.220;2023-02-15T04:11:03;17.93;;;7.03;;
23410;SDS011;11878;51.774;7.220;2023-02-15T04:14:05;17.27;;;7.53;;
23410;SDS011;11878;51.774;7.220;2023-02-15T04:17:27;15.27;;;7.47;;
23410;SDS011;11878;51.774;7.220;2023-02-15T04:20:32;17.07;;;7.73;;
23410;SDS011;11878;51.774;7.220;2023-02-15T04:23:53;20.97;;;7.10;;
23410;SDS011;11878;51.774;7.220;2023-02-15T04:27:13;12.67;;;7.50;;
23410;SDS011;11878;51.774;7.220;2023-02-15T04:30:18;17.90;;;8.20;;
23410;SDS011;11878;51.774;7.220;2023-02-15T04:33:22;20.53;;;8.27;;
23410;SDS011;11878;51.774;7.220;2023-02-15T04:36:24;19.43;;;7.37;;
23410;SDS011;11878;51.774;7.220;2023-02-15T04:39:26;14.83;;;7.53;;
23410;SDS011;11878;51.774;7.220;2023-02-15T04:42:27;17.23;;;8.27;;
23410;SDS011;11878;51.774;7.220;2023-02-15T04:45:29;16.47;;;8.40;;
23410;SDS011;11878;51.774;7.220;2023-02-15T04:48:31;14.93;;;6.97;;
23410;SDS011;11878;51.774;7.220;2023-02-15T04:51:33;17.10;;;7.13;;
23410;SDS011;11878;51.774;7.220;2023-02-15T04:54:35;15.77;;;8.43;;
23410;SDS011;11878;51.774;7.220;2023-02-15T04:57:42;15.20;;;7.17;;
23410;SDS011;11878;51.774;7.220;2023-02-15T05:00:44;16.57;;;8.67;;
23410;SDS011;11878;51.774;7.220;2023-02-15T05:03:46;20.67;;;7.53;;
23410;SDS011;11878;51.774;7.220;2023-02-15T05:06:47;12.23;;;6.20;;
23410;SDS011;11878;51.774;7.220;2023-02-15T05:09:49;17.80;;;7.93;;
23410;SDS011;11878;51.774;7.220;2023-02-15T05:12:51;18.43;;;7.93;;
23410;SDS011;11878;51.774;7.220;2023-02-15T05:15:53;16.00;;;7.03;;
23410;SDS011;11878;51.774;7.220;2023-02-15T05:22:53;14.27;;;7.07;;
23410;SDS011;11878;51.774;7.220;2023-02-15T05:33:13;16.60;;;7.80;;
23410;SDS011;11878;51.774;7.220;2023-02-15T05:36:15;16.97;;;7.67;;
23410;SDS011;11878;51.774;7.220;2023-02-15T05:39:17;21.67;;;8.60;;
23410;SDS011;11878;51.774;7.220;2023-02-15T05:42:19;17.30;;;7.97;;
23410;SDS011;11878;51.774;7.220;2023-02-15T05:45:20;19.93;;;9.13;;
23410;SDS011;11878;51.774;7.220;2023-02-15T05:48:23;19.07;;;9.17;;
23410;SDS011;11878;51.774;7.220;2023-02-15T05:51:26;21.43;;;8.87;;
23410;SDS011;11878;51.774;7.220;2023-02-15T05:54:28;21.00;;;10.20;;
23410;SDS011;11878;51.774;7.220;2023-02-15T05:57:30;20.77;;;8.10;;
23410;SDS011;11878;51.774;7.220;2023-02-15T06:00:32;19.20;;;9.13;;
23410;SDS011;11878;51.774;7.220;2023-02-15T06:03:37;18.53;;;8.17;;
23410;SDS011;11878;51.774;7.220;2023-02-15T06:06:39;21.13;;;7.93;;
23410;SDS011;11878;51.774;7.220;2023-02-15T06:09:41;20.27;;;7.33;;
23410;SDS011;11878;51.774;7.220;2023-02-15T06:12:43;21.27;;;8.10;;
23410;SDS011;11878;51.774;7.220;2023-02-15T06:15:46;19.97;;;8.37;;
23410;SDS011;11878;51.774;7.220;2023-02-15T06:18:51;18.20;;;8.60;;
23410;SDS011;11878;51.774;7.220;2023-02-15T06:21:54;19.87;;;8.57;;
23410;SDS011;11878;51.774;7.220;2023-02-15T06:24:55;21.87;;;9.87;;
23410;SDS011;11878;51.774;7.220;2023-02-15T06:27:57;33.50;;;12.93;;
23410;SDS011;11878;51.774;7.220;2023-02-15T06:30:59;29.57;;;12.97;;
23410;SDS011;11878;51.774;7.220;2023-02-15T06:34:01;31.60;;;12.60;;
23410;SDS011;11878;51.774;7.220;2023-02-15T06:37:03;30.63;;;11.87;;
23410;SDS011;11878;51.774;7.220;2023-02-15T06:40:07;25.47;;;10.03;;
23410;SDS011;11878;51.774;7.220;2023-02-15T06:43:09;26.93;;;11.27;;
23410;SDS011;11878;51.774;7.220;2023-02-15T06:46:11;26.27;;;9.50;;
23410;SDS011;11878;51.774;7.220;2023-02-15T06:49:13;21.60;;;10.57;;
23410;SDS011;11878;51.774;7.220;2023-02-15T06:52:16;22.30;;;9.57;;
23410;SDS011;11878;51.774;7.220;2023-02-15T06:55:18;26.43;;;9.33;;
23410;SDS011;11878;51.774;7.220;2023-02-15T06:58:20;26.63;;;11.73;;
23410;SDS011;11878;51.774;7.220;2023-02-15T07:01:22;25.30;;;9.87;;
23410;SDS011;11878;51.774;7.220;2023-02-15T07:04:24;24.37;;;10.57;;
23410;SDS011;11878;51.774;7.220;2023-02-15T07:07:26;29.53;;;10.57;;
23410;SDS011;11878;51.774;7.220;2023-02-15T07:10:28;27.47;;;9.70;;
23410;SDS011;11878;51.774;7.220;2023-02-15T07:13:30;24.60;;;10.40;;
23410;SDS011;11878;51.774;7.220;2023-02-15T07:16:32;23.40;;;9.50;;
23410;SDS011;11878;51.774;7.220;2023-02-15T07:19:33;23.07;;;11.03;;
23410;SDS011;11878;51.774;7.220;2023-02-15T07:22:35;25.40;;;9.67;;
23410;SDS011;11878;51.774;7.220;2023-02-15T07:25:38;19.37;;;10.03;;
23410;SDS011;11878;51.774;7.220;2023-02-15T07:28:40;20.90;;;8.23;;
23410;SDS011;11878;51.774;7.220;2023-02-15T07:31:41;20.73;;;9.33;;
23410;SDS011;11878;51.774;7.220;2023-02-15T07:34:46;28.70;;;14.07;;
23410;SDS011;11878;51.774;7.220;2023-02-15T07:37:48;20.37;;;10.30;;
23410;SDS011;11878;51.774;7.220;2023-02-15T07:40:50;21.00;;;10.53;;
23410;SDS011;11878;51.774;7.220;2023-02-15T07:43:51;23.57;;;9.73;;
23410;SDS011;11878;51.774;7.220;2023-02-15T07:46:54;23.40;;;10.70;;
23410;SDS011;11878;51.774;7.220;2023-02-15T07:49:56;18.50;;;10.13;;
23410;SDS011;11878;51.774;7.220;2023-02-15T07:53:02;19.70;;;9.83;;
23410;SDS011;11878;51.774;7.220;2023-02-15T07:56:05;23.37;;;10.50;;
23410;SDS011;11878;51.774;7.220;2023-02-15T07:59:10;18.50;;;10.03;;
23410;SDS011;11878;51.774;7.220;2023-02-15T08:02:12;17.90;;;8.40;;
23410;SDS011;11878;51.774;7.220;2023-02-15T08:05:14;23.97;;;10.50;;
23410;SDS011;11878;51.774;7.220;2023-02-15T08:08:18;20.10;;;9.20;;
23410;SDS011;11878;51.774;7.220;2023-02-15T08:11:33;26.87;;;10.27;;
23410;SDS011;11878;51.774;7.220;2023-02-15T08:14:36;24.13;;;9.90;;
23410;SDS011;11878;51.774;7.220;2023-02-15T08:17:38;19.57;;;10.13;;
23410;SDS011;11878;51.774;7.220;2023-02-15T08:20:41;28.53;;;10.73;;
23410;SDS011;11878;51.774;7.220;2023-02-15T08:23:43;20.63;;;10.23;;
23410;SDS011;11878;51.774;7.220;2023-02-15T08:26:45;21.13;;;10.60;;
23410;SDS011;11878;51.774;7.220;2023-02-15T08:29:48;21.60;;;10.57;;
23410;SDS011;11878;51.774;7.220;2023-02-15T08:32:50;22.10;;;10.43;;
23410;SDS011;11878;51.774;7.220;2023-02-15T08:35:52;24.23;;;10.20;;
23410;SDS011;11878;51.774;7.220;2023-02-15T08:38:54;20.80;;;9.77;;
23410;SDS011;11878;51.774;7.220;2023-02-15T08:41:58;21.83;;;10.50;;
23410;SDS011;11878;51.774;7.220;2023-02-15T08:45:00;24.50;;;11.30;;
23410;SDS011;11878;51.774;7.220;2023-02-15T08:48:02;31.27;;;11.33;;
23410;SDS011;11878;51.774;7.220;2023-02-15T08:51:05;28.07;;;11.87;;
23410;SDS011;11878;51.774;7.220;2023-02-15T08:54:08;18.53;;;9.50;;
23410;SDS011;11878;51.774;7.220;2023-02-15T08:57:13;24.57;;;10.33;;
23410;SDS011;11878;51.774;7.220;2023-02-15T09:00:15;21.03;;;9.70;;
23410;SDS011;11878;51.774;7.220;2023-02-15T09:03:17;22.97;;;10.37;;
23410;SDS011;11878;51.774;7.220;2023-02-15T09:06:19;21.03;;;9.57;;
23410;SDS011;11878;51.774;7.220;2023-02-15T09:09:22;20.63;;;10.90;;
23410;SDS011;11878;51.774;7.220;2023-02-15T09:12:23;25.20;;;10.33;;
23410;SDS011;11878;51.774;7.220;2023-02-15T09:15:25;23.73;;;11.17;;
23410;SDS011;11878;51.774;7.220;2023-02-15T09:18:27;26.70;;;11.67;;
23410;SDS011;11878;51.774;7.220;2023-02-15T09:21:30;22.50;;;11.90;;
23410;SDS011;11878;51.774;7.220;2023-02-15T09:24:33;24.83;;;11.70;;
23410;SDS011;11878;51.774;7.220;2023-02-15T09:27:35;22.30;;;11.17;;
23410;SDS011;11878;51.774;7.220;2023-02-15T09:30:37;27.87;;;10.87;;
23410;SDS011;11878;51.774;7.220;2023-02-15T09:33:40;41.27;;;15.67;;
23410;SDS011;11878;51.774;7.220;2023-02-15T09:36:44;29.83;;;15.90;;
23410;SDS011;11878;51.774;7.220;2023-02-15T09:39:46;26.90;;;13.37;;
23410;SDS011;11878;51.774;7.220;2023-02-15T09:42:59;30.00;;;13.73;;
23410;SDS011;11878;51.774;7.220;2023-02-15T09:56:55;29.40;;;13.73;;
23410;SDS011;11878;51.774;7.220;2023-02-15T10:06:43;33.00;;;14.80;;
23410;SDS011;11878;51.774;7.220;2023-02-15T10:26:35;32.93;;;15.57;;
23410;SDS011;11878;51.774;7.220;2023-02-15T10:29:48;28.03;;;14.77;;
23410;SDS011;11878;51.774;7.220;2023-02-15T10:45:57;46.60;;;20.57;;
23410;SDS011;11878;51.774;7.220;2023-02-15T10:52:29;30.80;;;14.73;;
23410;SDS011;11878;51.774;7.220;2023-02-15T10:59:25;27.97;;;14.93;;
23410;SDS011;11878;51.774;7.220;2023-02-15T11:09:16;32.10;;;15.70;;
23410;SDS011;11878;51.774;7.220;2023-02-15T11:12:23;32.47;;;14.33;;
23410;SDS011;11878;51.774;7.220;2023-02-15T11:19:00;40.53;;;16.43;;
23410;SDS011;11878;51.774;7.220;2023-02-15T11:22:09;29.93;;;15.27;;
23410;SDS011;11878;51.774;7.220;2023-02-15T11:25:16;37.27;;;16.67;;
23410;SDS011;11878;51.774;7.220;2023-02-15T11:31:56;30.67;;;14.63;;
23410;SDS011;11878;51.774;7.220;2023-02-15T11:35:28;30.40;;;16.30;;
23410;SDS011;11878;51.774;7.220;2023-02-15T11:38:51;37.80;;;15.13;;
23410;SDS011;11878;51.774;7.220;2023-02-15T11:42:13;32.87;;;14.93;;
23410;SDS011;11878;51.774;7.220;2023-02-15T11:48:31;29.63;;;14.77;;
23410;SDS011;11878;51.774;7.220;2023-02-15T11:51:33;28.13;;;14.67;;
23410;SDS011;11878;51.774;7.220;2023-02-15T11:54:37;30.33;;;14.77;;
23410;SDS011;11878;51.774;7.220;2023-02-15T12:01:42;28.07;;;13.73;;
23410;SDS011;11878;51.774;7.220;2023-02-15T12:04:52;30.07;;;14.37;;
23410;SDS011;11878;51.774;7.220;2023-02-15T12:08:01;27.63;;;13.23;;
23410;SDS011;11878;51.774;7.220;2023-02-15T12:11:09;28.30;;;14.47;;
23410;SDS011;11878;51.774;7.220;2023-02-15T12:14:16;34.00;;;15.23;;
23410;SDS011;11878;51.774;7.220;2023-02-15T12:17:20;30.43;;;15.37;;
23410;SDS011;11878;51.774;7.220;2023-02-15T12:20:25;32.63;;;16.07;;
23410;SDS011;11878;51.774;7.220;2023-02-15T12:23:32;29.93;;;15.07;;
23410;SDS011;11878;51.774;7.220;2023-02-15T12:26:35;32.23;;;16.23;;
23410;SDS011;11878;51.774;7.220;2023-02-15T12:29:42;28.87;;;15.87;;
23410;SDS011;11878;51.774;7.220;2023-02-15T12:32:50;27.03;;;15.07;;
23410;SDS011;11878;51.774;7.220;2023-02-15T12:36:39;25.20;;;13.37;;
23410;SDS011;11878;51.774;7.220;2023-02-15T12:39:22;28.80;;;15.20;;
23410;SDS011;11878;51.774;7.220;2023-02-15T12:42:40;31.47;;;15.33;;
23410;SDS011;11878;51.774;7.220;2023-02-15T12:45:43;32.30;;;14.27;;
23410;SDS011;11878;51.774;7.220;2023-02-15T12:48:45;30.63;;;15.67;;
23410;SDS011;11878;51.774;7.220;2023-02-15T12:51:49;32.77;;;13.80;;
23410;SDS011;11878;51.774;7.220;2023-02-15T12:54:55;30.53;;;13.57;;
23410;SDS011;11878;51.774;7.220;2023-02-15T12:58:19;24.57;;;12.77;;
23410;SDS011;11878;51.774;7.220;2023-02-15T13:01:24;29.93;;;12.60;;
23410;SDS011;11878;51.774;7.220;2023-02-15T13:04:28;30.10;;;14.07;;
23410;SDS011;11878;51.774;7.220;2023-02-15T13:07:30;25.52;;;12.57;;
23410;SDS011;11878;51.774;7.220;2023-02-15T13:10:51;25.88;;;12.05;;
23410;SDS011;11878;51.774;7.220;2023-02-15T13:13:54;23.90;;;11.38;;
23410;SDS011;11878;51.774;7.220;2023-02-15T13:16:57;25.58;;;12.00;;
23410;SDS011;11878;51.774;7.220;2023-02-15T13:20:03;25.70;;;11.32;;
23410;SDS011;11878;51.774;7.220;2023-02-15T13:23:23;26.42;;;10.57;;
23410;SDS011;11878;51.774;7.220;2023-02-15T13:26:26;25.43;;;11.03;;
23410;SDS011;11878;51.774;7.220;2023-02-15T13:29:35;20.30;;;10.60;;
23410;SDS011;11878;51.774;7.220;2023-02-15T13:32:38;26.40;;;10.43;;
23410;SDS011;11878;51.774;7.220;2023-02-15T13:35:50;25.20;;;9.43;;
23410;SDS011;11878;51.774;7.220;2023-02-15T13:42:20;28.80;;;10.50;;
23410;SDS011;11878;51.774;7.220;2023-02-15T13:52:24;20.10;;;8.90;;
23410;SDS011;11878;51.774;7.220;2023-02-15T14:02:33;16.30;;;8.70;;
23410;SDS011;11878;51.774;7.220;2023-02-15T14:15:38;21.67;;;8.48;;
23410;SDS011;11878;51.774;7.220;2023-02-15T14:25:35;18.85;;;8.45;;
23410;SDS011;11878;51.774;7.220;2023-02-15T14:28:51;19.55;;;7.95;;
23410;SDS011;11878;51.774;7.220;2023-02-15T14:32:15;16.98;;;7.53;;
23410;SDS011;11878;51.774;7.220;2023-02-15T14:35:27;19.60;;;9.05;;
23410;SDS011;11878;51.774;7.220;2023-02-15T14:41:53;21.90;;;8.95;;
23410;SDS011;11878;51.774;7.220;2023-02-15T14:48:24;24.13;;;9.20;;
23410;SDS011;11878;51.774;7.220;2023-02-15T14:57:57;21.48;;;8.95;;
23410;SDS011;11878;51.774;7.220;2023-02-15T15:01:09;22.65;;;9.50;;
23410;SDS011;11878;51.774;7.220;2023-02-15T15:04:13;22.77;;;9.97;;
23410;SDS011;11878;51.774;7.220;2023-02-15T15:07:26;20.70;;;9.53;;
23410;SDS011;11878;51.774;7.220;2023-02-15T15:10:40;20.90;;;9.87;;
23410;SDS011;11878;51.774;7.220;2023-02-15T15:13:57;19.37;;;8.23;;
23410;SDS011;11878;51.774;7.220;2023-02-15T15:17:05;20.70;;;8.33;;
23410;SDS011;11878;51.774;7.220;2023-02-15T15:26:21;26.00;;;9.63;;
23410;SDS011;11878;51.774;7.220;2023-02-15T15:29:38;26.57;;;9.97;;
23410;SDS011;11878;51.774;7.220;2023-02-15T15:43:16;22.73;;;9.10;;
23410;SDS011;11878;51.774;7.220;2023-02-15T15:50:15;33.10;;;11.23;;
23410;SDS011;11878;51.774;7.220;2023-02-15T15:53:20;24.93;;;9.87;;
23410;SDS011;11878;51.774;7.220;2023-02-15T15:56:29;22.93;;;9.83;;
23410;SDS011;11878;51.774;7.220;2023-02-15T15:59:34;24.47;;;9.70;;
23410;SDS011;11878;51.774;7.220;2023-02-15T16:02:36;22.00;;;10.07;;
23410;SDS011;11878;51.774;7.220;2023-02-15T16:05:54;27.33;;;9.73;;
23410;SDS011;11878;51.774;7.220;2023-02-15T16:08:56;38.30;;;9.80;;
23410;SDS011;11878;51.774;7.220;2023-02-15T16:11:58;22.37;;;9.50;;
23410;SDS011;11878;51.774;7.220;2023-02-15T16:15:17;26.37;;;10.53;;
23410;SDS011;11878;51.774;7.220;2023-02-15T16:18:22;26.53;;;9.27;;
23410;SDS011;11878;51.774;7.220;2023-02-15T16:21:30;28.17;;;9.67;;
23410;SDS011;11878;51.774;7.220;2023-02-15T16:27:47;24.50;;;10.00;;
23410;SDS011;11878;51.774;7.220;2023-02-15T16:34:23;20.93;;;8.53;;
23410;SDS011;11878;51.774;7.220;2023-02-15T16:37:33;26.70;;;7.80;;
23410;SDS011;11878;51.774;7.220;2023-02-15T16:40:50;24.40;;;8.77;;
23410;SDS011;11878;51.774;7.220;2023-02-15T16:44:00;20.80;;;8.43;;
23410;SDS011;11878;51.774;7.220;2023-02-15T16:47:12;24.77;;;10.10;;
23410;SDS011;11878;51.774;7.220;2023-02-15T16:50:23;18.63;;;8.60;;
23410;SDS011;11878;51.774;7.220;2023-02-15T16:53:34;21.97;;;10.00;;
23410;SDS011;11878;51.774;7.220;2023-02-15T16:56:36;20.63;;;8.80;;
23410;SDS011;11878;51.774;7.220;2023-02-15T16:59:39;16.97;;;8.00;;
23410;SDS011;11878;51.774;7.220;2023-02-15T17:06:34;23.57;;;8.90;;
23410;SDS011;11878;51.774;7.220;2023-02-15T17:09:35;25.83;;;9.27;;
23410;SDS011;11878;51.774;7.220;2023-02-15T17:12:47;23.70;;;8.63;;
23410;SDS011;11878;51.774;7.220;2023-02-15T17:19:02;25.77;;;9.53;;
23410;SDS011;11878;51.774;7.220;2023-02-15T17:22:14;24.00;;;11.67;;
23410;SDS011;11878;51.774;7.220;2023-02-15T17:25:23;26.37;;;13.17;;
23410;SDS011;11878;51.774;7.220;2023-02-15T17:28:33;30.97;;;13.97;;
23410;SDS011;11878;51.774;7.220;2023-02-15T17:31:36;25.63;;;10.83;;
23410;SDS011;11878;51.774;7.220;2023-02-15T17:34:42;28.87;;;13.27;;
23410;SDS011;11878;51.774;7.220;2023-02-15T17:37:46;33.03;;;11.90;;
23410;SDS011;11878;51.774;7.220;2023-02-15T17:40:49;27.77;;;11.83;;
23410;SDS011;11878;51.774;7.220;2023-02-15T17:43:51;29.97;;;13.27;;
23410;SDS011;11878;51.774;7.220;2023-02-15T17:46:53;28.40;;;10.80;;
23410;SDS011;11878;51.774;7.220;2023-02-15T17:49:55;37.67;;;13.87;;
23410;SDS011;11878;51.774;7.220;2023-02-15T17:53:01;32.37;;;13.27;;
23410;SDS011;11878;51.774;7.220;2023-02-15T17:56:04;27.47;;;13.00;;
23410;SDS011;11878;51.774;7.220;2023-02-15T17:59:10;34.13;;;13.50;;
23410;SDS011;11878;51.774;7.220;2023-02-15T18:02:14;31.27;;;14.47;;
23410;SDS011;11878;51.774;7.220;2023-02-15T18:05:34;34.17;;;13.00;;
23410;SDS011;11878;51.774;7.220;2023-02-15T18:08:55;31.33;;;13.57;;
23410;SDS011;11878;51.774;7.220;2023-02-15T18:15:22;38.67;;;14.20;;
23410;SDS011;11878;51.774;7.220;2023-02-15T18:18:24;28.03;;;11.57;;
23410;SDS011;11878;51.774;7.220;2023-02-15T18:21:26;28.30;;;12.37;;
23410;SDS011;11878;51.774;7.220;2023-02-15T18:24:28;24.40;;;12.27;;
23410;SDS011;11878;51.774;7.220;2023-02-15T18:27:31;28.57;;;11.47;;
23410;SDS011;11878;51.774;7.220;2023-02-15T18:30:33;33.17;;;14.33;;
23410;SDS011;11878;51.774;7.220;2023-02-15T18:33:40;26.37;;;12.13;;
23410;SDS011;11878;51.774;7.220;2023-02-15T18:36:44;35.13;;;13.53;;
23410;SDS011;11878;51.774;7.220;2023-02-15T18:39:48;29.37;;;13.30;;
23410;SDS011;11878;51.774;7.220;2023-02-15T18:42:54;33.80;;;13.60;;
23410;SDS011;11878;51.774;7.220;2023-02-15T18:45:57;34.80;;;16.23;;
23410;SDS011;11878;51.774;7.220;2023-02-15T18:48:59;34.43;;;14.90;;
23410;SDS011;11878;51.774;7.220;2023-02-15T18:52:01;32.73;;;12.10;;
23410;SDS011;11878;51.774;7.220;2023-02-15T18:55:04;25.83;;;12.10;;
23410;SDS011;11878;51.774;7.220;2023-02-15T18:58:17;26.57;;;12.57;;
23410;SDS011;11878;51.774;7.220;2023-02-15T19:01:21;28.97;;;12.93;;
23410;SDS011;11878;51.774;7.220;2023-02-15T19:04:23;30.30;;;13.00;;
23410;SDS011;11878;51.774;7.220;2023-02-15T19:07:26;31.13;;;13.57;;
23410;SDS011;11878;51.774;7.220;2023-02-15T19:10:30;25.73;;;12.80;;
23410;SDS011;11878;51.774;7.220;2023-02-15T19:13:33;33.53;;;12.03;;
23410;SDS011;11878;51.774;7.220;2023-02-15T19:16:36;23.87;;;10.80;;
23410;SDS011;11878;51.774;7.220;2023-02-15T19:19:38;32.17;;;12.60;;
23410;SDS011;11878;51.774;7.220;2023-02-15T19:22:40;32.40;;;13.60;;
23410;SDS011;11878;51.774;7.220;2023-02-15T19:25:42;29.60;;;13.93;;
23410;SDS011;11878;51.774;7.220;2023-02-15T19:28:44;29.93;;;14.50;;
23410;SDS011;11878;51.774;7.220;2023-02-15T19:31:46;37.73;;;16.73;;
23410;SDS011;11878;51.774;7.220;2023-02-15T19:34:49;66.53;;;28.53;;
23410;SDS011;11878;51.774;7.220;2023-02-15T19:37:55;55.33;;;24.00;;
23410;SDS011;11878;51.774;7.220;2023-02-15T19:41:06;49.37;;;22.60;;
23410;SDS011;11878;51.774;7.220;2023-02-15T19:44:09;41.17;;;19.17;;
23410;SDS011;11878;51.774;7.220;2023-02-15T19:47:11;41.80;;;18.50;;
23410;SDS011;11878;51.774;7.220;2023-02-15T19:50:15;32.70;;;15.40;;
23410;SDS011;11878;51.774;7.220;2023-02-15T19:53:19;30.33;;;13.20;;
23410;SDS011;11878;51.774;7.220;2023-02-15T19:56:23;32.10;;;12.60;;
23410;SDS011;11878;51.774;7.220;2023-02-15T19:59:28;33.00;;;11.93;;
23410;SDS011;11878;51.774;7.220;2023-02-15T20:02:31;28.93;;;12.73;;
23410;SDS011;11878;51.774;7.220;2023-02-15T20:05:33;26.67;;;11.00;;
23410;SDS011;11878;51.774;7.220;2023-02-15T20:08:38;32.10;;;11.53;;
23410;SDS011;11878;51.774;7.220;2023-02-15T20:11:42;23.90;;;11.23;;
23410;SDS011;11878;51.774;7.220;2023-02-15T20:14:44;27.87;;;11.37;;
23410;SDS011;11878;51.774;7.220;2023-02-15T20:17:45;31.43;;;12.37;;
23410;SDS011;11878;51.774;7.220;2023-02-15T20:20:49;28.47;;;12.03;;
23410;SDS011;11878;51.774;7.220;2023-02-15T20:23:52;29.00;;;11.30;;
23410;SDS011;11878;51.774;7.220;2023-02-15T20:26:54;21.17;;;9.77;;
23410;SDS011;11878;51.774;7.220;2023-02-15T20:29:56;21.13;;;10.03;;
23410;SDS011;11878;51.774;7.220;2023-02-15T20:32:57;20.17;;;9.27;;
23410;SDS011;11878;51.774;7.220;2023-02-15T20:35:59;23.20;;;10.97;;
23410;SDS011;11878;51.774;7.220;2023-02-15T20:39:03;23.13;;;9.93;;
23410;SDS011;11878;51.774;7.220;2023-02-15T20:42:11;23.67;;;9.63;;
23410;SDS011;11878;51.774;7.220;2023-02-15T20:45:14;24.83;;;9.87;;
23410;SDS011;11878;51.774;7.220;2023-02-15T20:48:21;18.77;;;8.77;;
23410;SDS011;11878;51.774;7.220;2023-02-15T20:51:22;24.77;;;9.63;;
23410;SDS011;11878;51.774;7.220;2023-02-15T20:54:25;22.90;;;9.43;;
23410;SDS011;11878;51.774;7.220;2023-02-15T20:57:30;26.43;;;10.53;;
23410;SDS011;11878;51.774;7.220;2023-02-15T21:00:32;20.13;;;9.47;;
23410;SDS011;11878;51.774;7.220;2023-02-15T21:03:34;21.17;;;10.43;;
23410;SDS011;11878;51.774;7.220;2023-02-15T21:06:35;21.93;;;9.83;;
23410;SDS011;11878;51.774;7.220;2023-02-15T21:09:37;23.27;;;10.43;;
23410;SDS011;11878;51.774;7.220;2023-02-15T21:12:39;22.83;;;10.53;;
23410;SDS011;11878;51.774;7.220;2023-02-15T21:15:41;29.57;;;10.97;;
23410;SDS011;11878;51.774;7.220;2023-02-15T21:18:45;26.83;;;11.90;;
23410;SDS011;11878;51.774;7.220;2023-02-15T21:21:52;29.20;;;12.77;;
23410;SDS011;11878;51.774;7.220;2023-02-15T21:25:13;32.47;;;13.53;;
23410;SDS011;11878;51.774;7.220;2023-02-15T21:28:20;30.17;;;12.20;;
23410;SDS011;11878;51.774;7.220;2023-02-15T21:31:24;23.40;;;12.07;;
23410;SDS011;11878;51.774;7.220;2023-02-15T21:34:26;32.97;;;13.47;;
23410;SDS011;11878;51.774;7.220;2023-02-15T21:37:30;28.03;;;13.20;;
23410;SDS011;11878;51.774;7.220;2023-02-15T21:40:35;22.43;;;11.07;;
23410;SDS011;11878;51.774;7.220;2023-02-15T21:43:37;21.17;;;10.83;;